Alameda, New Mexico
Current Conditions -  °F | °C
As of 8:50 AM on Tuesday 21 Oct 2014 (Local Time) from KAEG Reporting Station
Broken Clouds Broken Clouds  
Wind Chill: 11°   Ceiling: 6500
Heat Index: 11°   Visibility: 10mi
Dew Point:   Wind: 0mph
Humidity: 88%   Direction: NA
Pressure: 30.19"   Gusts: NA
Location:  35.1991°N, 106.662°W
Report Text: KAEG 211450Z 00000KT 10SM BKN065 11/09 A3019
Loading
Personal Weather Stations






























Interactive Weather Map
Tropical Storm Tracking
New forecast layout! Learn more

10-Day Weather Forecast

Advertisements
Track Severe Weather on mobile